createdAt,value
2019-06-08T00:00:54.762Z,21.10
2019-06-08T00:03:30.280Z,20.90
2019-06-08T00:06:04.183Z,21.52
2019-06-08T00:08:37.929Z,21.02
2019-06-08T00:11:12.754Z,20.37
2019-06-08T00:13:46.707Z,20.00
2019-06-08T00:16:21.473Z,21.75
2019-06-08T00:18:55.245Z,20.52
2019-06-08T00:21:29.022Z,19.98
2019-06-08T00:24:03.203Z,21.20
2019-06-08T00:26:37.048Z,20.50
2019-06-08T00:29:10.808Z,20.55
2019-06-08T00:31:44.587Z,20.05
2019-06-08T00:34:18.526Z,20.12
2019-06-08T00:36:52.604Z,21.35
2019-06-08T00:39:26.329Z,21.30
2019-06-08T00:42:00.030Z,20.60
2019-06-08T00:44:33.742Z,21.48
2019-06-08T00:47:07.574Z,20.95
2019-06-08T00:49:41.291Z,20.95
2019-06-08T00:52:15.066Z,21.55
2019-06-08T00:54:48.910Z,21.45
2019-06-08T00:57:23.833Z,22.37
2019-06-08T00:59:59.634Z,21.05
2019-06-08T01:02:33.969Z,21.85
2019-06-08T01:05:07.760Z,22.07
2019-06-08T01:07:41.736Z,22.10
2019-06-08T01:10:15.669Z,20.62
2019-06-08T01:12:49.466Z,21.30
2019-06-08T01:15:29.307Z,20.92
2019-06-08T01:18:03.709Z,21.45
2019-06-08T01:20:34.131Z,22.62
2019-06-08T01:23:09.749Z,20.50
2019-06-08T01:25:44.763Z,20.75
2019-06-08T01:28:19.853Z,19.77
2019-06-08T01:30:53.770Z,21.15
2019-06-08T01:33:28.785Z,20.88
2019-06-08T01:36:02.656Z,21.30
2019-06-08T01:38:36.715Z,20.25
2019-06-08T01:41:12.286Z,20.52
2019-06-08T01:43:48.062Z,20.85
2019-06-08T01:46:21.940Z,20.68
2019-06-08T01:48:55.779Z,19.35
2019-06-08T01:51:30.574Z,19.77
2019-06-08T01:54:04.588Z,18.67
2019-06-08T01:56:38.755Z,18.98
2019-06-08T01:59:12.999Z,17.30
2019-06-08T02:01:46.770Z,17.67
2019-06-08T02:04:20.726Z,16.87
2019-06-08T02:06:54.480Z,16.93
2019-06-08T02:09:28.705Z,16.67
2019-06-08T02:12:02.782Z,16.48
2019-06-08T02:14:36.732Z,16.37
2019-06-08T02:17:10.582Z,15.98
2019-06-08T02:19:44.439Z,15.32
2019-06-08T02:22:18.352Z,16.05
2019-06-08T02:24:52.494Z,14.80
2019-06-08T02:27:27.245Z,14.78
2019-06-08T02:30:01.286Z,15.75
2019-06-08T02:32:36.826Z,15.28
2019-06-08T02:35:10.440Z,14.95
2019-06-08T02:37:44.419Z,14.93
2019-06-08T02:40:18.304Z,15.53
2019-06-08T02:42:52.387Z,16.23
2019-06-08T02:45:26.102Z,15.93
2019-06-08T02:47:59.888Z,15.98
2019-06-08T02:50:53.903Z,16.17
2019-06-08T02:53:29.628Z,15.75
2019-06-08T02:56:03.758Z,15.48
2019-06-08T02:58:39.102Z,16.67
2019-06-08T03:01:13.068Z,16.30
2019-06-08T03:03:46.848Z,16.65
2019-06-08T03:06:23.347Z,15.88
2019-06-08T03:08:57.549Z,16.93
2019-06-08T03:11:32.636Z,17.62
2019-06-08T03:14:08.318Z,16.93
2019-06-08T03:16:43.333Z,18.57
2019-06-08T03:19:22.200Z,18.30
2019-06-08T03:21:53.101Z,17.12
2019-06-08T03:24:27.117Z,18.80
2019-06-08T03:27:00.844Z,17.57
2019-06-08T03:29:35.533Z,17.50
2019-06-08T03:32:10.350Z,18.15
2019-06-08T03:34:54.640Z,18.82
2019-06-08T03:37:19.800Z,18.57
2019-06-08T03:39:53.621Z,19.02
2019-06-08T03:42:27.537Z,17.98
2019-06-08T03:45:01.197Z,20.10
2019-06-08T03:47:36.878Z,18.67
2019-06-08T03:50:10.512Z,18.70
2019-06-08T03:52:46.284Z,17.70
2019-06-08T03:55:20.526Z,17.82
2019-06-08T03:57:54.365Z,18.35
2019-06-08T04:00:28.411Z,17.85
2019-06-08T04:03:02.634Z,17.57
2019-06-08T04:05:40.770Z,18.45
2019-06-08T04:08:14.111Z,17.60
2019-06-08T04:10:47.980Z,17.15
2019-06-08T04:13:22.411Z,17.17
2019-06-08T04:15:57.735Z,17.17
2019-06-08T04:18:31.588Z,17.05
2019-06-08T04:21:05.360Z,17.65
2019-06-08T04:23:41.109Z,17.48
2019-06-08T04:26:15.767Z,16.20
2019-06-08T04:28:49.757Z,17.35
2019-06-08T04:31:23.624Z,16.85
2019-06-08T04:33:57.490Z,17.42
2019-06-08T04:36:31.444Z,16.97
2019-06-08T04:39:06.693Z,16.60
2019-06-08T04:41:41.127Z,16.62
2019-06-08T04:44:16.172Z,17.60
2019-06-08T04:46:50.088Z,16.40
2019-06-08T04:49:23.924Z,17.32
2019-06-08T04:51:57.580Z,16.07
2019-06-08T04:54:31.500Z,15.78
2019-06-08T04:57:05.261Z,16.25
2019-06-08T04:59:41.137Z,16.35
2019-06-08T05:02:14.432Z,15.68
2019-06-08T05:04:49.484Z,16.40
2019-06-08T05:07:23.537Z,16.95
2019-06-08T05:09:57.431Z,16.40
2019-06-08T05:12:31.676Z,16.10
2019-06-08T05:15:05.666Z,15.90
2019-06-08T05:17:41.047Z,16.00
2019-06-08T05:20:15.250Z,15.85
2019-06-08T05:22:49.797Z,15.78
2019-06-08T05:25:24.011Z,15.58
2019-06-08T05:27:57.884Z,14.83
2019-06-08T05:30:31.622Z,15.60
2019-06-08T05:33:05.585Z,15.25
2019-06-08T05:35:39.515Z,15.05
2019-06-08T05:38:13.332Z,15.80
2019-06-08T05:40:47.713Z,14.40
2019-06-08T05:43:22.122Z,14.80
2019-06-08T05:45:56.020Z,15.03
2019-06-08T05:48:30.062Z,14.05
2019-06-08T05:51:04.569Z,14.23
2019-06-08T05:53:39.595Z,14.47
2019-06-08T05:56:13.590Z,14.10
2019-06-08T05:58:48.127Z,13.95
2019-06-08T06:01:22.956Z,13.70
2019-06-08T06:03:56.919Z,14.10
2019-06-08T06:06:31.296Z,14.38
2019-06-08T06:09:07.050Z,13.13
2019-06-08T06:11:40.932Z,13.30
2019-06-08T06:14:14.758Z,13.60
2019-06-08T06:16:49.139Z,12.85
2019-06-08T06:19:23.166Z,12.18
2019-06-08T06:21:56.875Z,13.35
2019-06-08T06:24:30.838Z,11.95
2019-06-08T06:27:04.798Z,11.57
2019-06-08T06:29:38.458Z,12.82
2019-06-08T06:32:12.192Z,12.75
2019-06-08T06:34:46.046Z,13.50
2019-06-08T06:37:20.919Z,12.23
2019-06-08T06:39:54.675Z,12.33
2019-06-08T06:42:28.582Z,12.37
2019-06-08T06:45:02.781Z,11.93
2019-06-08T06:47:36.447Z,11.33
2019-06-08T06:50:12.164Z,11.20
2019-06-08T06:52:46.687Z,11.48
2019-06-08T06:55:20.760Z,11.45
2019-06-08T06:57:54.507Z,11.60
2019-06-08T07:00:34.614Z,11.12
2019-06-08T07:03:08.298Z,10.45
2019-06-08T07:05:42.242Z,10.90
2019-06-08T07:08:17.493Z,11.43
2019-06-08T07:10:51.350Z,11.28
2019-06-08T07:13:26.046Z,10.38
2019-06-08T07:16:16.912Z,10.95
2019-06-08T07:18:35.898Z,10.13
2019-06-08T07:21:09.773Z,10.35
2019-06-08T07:23:43.588Z,10.35
2019-06-08T07:26:17.435Z,10.80
2019-06-08T07:28:54.147Z,10.45
2019-06-08T07:31:28.162Z,10.93
2019-06-08T07:34:02.271Z,10.90
2019-06-08T07:36:36.159Z,10.28
2019-06-08T07:39:10.084Z,9.98
2019-06-08T07:41:43.990Z,10.38
2019-06-08T07:44:17.773Z,10.03
2019-06-08T07:46:51.614Z,10.43
2019-06-08T07:49:25.413Z,10.30
2019-06-08T07:52:09.713Z,10.65
2019-06-08T07:54:35.046Z,10.32
2019-06-08T07:57:10.270Z,10.28
2019-06-08T07:59:44.178Z,10.30
2019-06-08T08:02:18.149Z,11.10
2019-06-08T08:04:52.515Z,10.20
2019-06-08T08:07:26.588Z,9.70
2019-06-08T08:10:00.405Z,10.58
2019-06-08T08:12:34.203Z,10.38
2019-06-08T08:15:08.175Z,10.23
2019-06-08T08:17:41.902Z,9.15
2019-06-08T08:20:15.806Z,9.05
2019-06-08T08:22:54.415Z,9.60
2019-06-08T08:25:25.333Z,9.88
2019-06-08T08:28:00.910Z,8.48
2019-06-08T08:30:37.534Z,8.95
2019-06-08T08:33:10.932Z,9.93
2019-06-08T08:35:44.772Z,9.35
2019-06-08T08:38:18.709Z,9.43
2019-06-08T08:40:54.698Z,8.25
2019-06-08T08:43:28.570Z,8.80
2019-06-08T08:46:02.499Z,9.75
2019-06-08T08:48:37.698Z,9.63
2019-06-08T08:51:12.013Z,9.55
2019-06-08T08:53:48.201Z,9.55
2019-06-08T08:56:22.101Z,9.30
2019-06-08T08:58:59.158Z,9.38
2019-06-08T09:01:31.686Z,9.73
2019-06-08T09:04:08.555Z,10.78
2019-06-08T09:06:41.217Z,10.08
2019-06-08T09:09:18.352Z,10.10
2019-06-08T09:11:51.583Z,9.43
2019-06-08T09:14:28.068Z,10.15
2019-06-08T09:17:03.419Z,10.32
2019-06-08T09:19:40.365Z,10.50
2019-06-08T09:22:14.839Z,10.60
2019-06-08T09:24:48.897Z,11.50
2019-06-08T09:27:22.949Z,12.33
2019-06-08T09:29:59.684Z,12.00
2019-06-08T09:32:34.647Z,11.88
2019-06-08T09:35:09.373Z,11.97
2019-06-08T09:37:43.771Z,12.07
2019-06-08T09:40:19.854Z,12.45
2019-06-08T09:43:01.053Z,11.93
2019-06-08T09:45:30.468Z,12.70
2019-06-08T09:48:05.655Z,12.70
2019-06-08T09:50:40.059Z,12.78
2019-06-08T09:53:23.878Z,13.00
2019-06-08T09:55:49.668Z,12.98
2019-06-08T09:58:23.511Z,12.53
2019-06-08T10:01:01.046Z,12.20
2019-06-08T10:03:33.166Z,12.50
2019-06-08T10:06:11.540Z,11.50
2019-06-08T10:08:42.729Z,11.55
2019-06-08T10:11:16.761Z,11.68
2019-06-08T10:13:50.638Z,10.88
2019-06-08T10:16:24.825Z,11.68
2019-06-08T10:19:03.151Z,13.03
2019-06-08T10:21:34.515Z,15.35
2019-06-08T10:24:09.494Z,15.90
2019-06-08T10:26:43.883Z,15.15
2019-06-08T10:29:18.459Z,16.57
2019-06-08T10:31:53.047Z,17.30
2019-06-08T10:34:27.276Z,16.15
2019-06-08T10:37:08.314Z,17.40
2019-06-08T10:39:38.620Z,17.37
2019-06-08T10:42:13.094Z,17.07
2019-06-08T10:44:47.045Z,16.73
2019-06-08T10:47:21.148Z,17.12
2019-06-08T10:49:54.956Z,16.02
2019-06-08T10:52:28.668Z,16.30
2019-06-08T10:55:04.665Z,16.95
2019-06-08T10:57:38.831Z,16.17
2019-06-08T11:00:22.618Z,17.07
2019-06-08T11:02:49.939Z,17.12
2019-06-08T11:05:23.946Z,16.82
2019-06-08T11:07:59.339Z,16.62
2019-06-08T11:10:33.473Z,16.00
2019-06-08T11:13:13.314Z,16.35
2019-06-08T11:15:43.170Z,17.10
2019-06-08T11:18:18.613Z,16.35
2019-06-08T11:20:52.629Z,16.85
2019-06-08T11:23:28.620Z,16.40
2019-06-08T11:26:04.633Z,16.07
2019-06-08T11:28:38.330Z,15.85
2019-06-08T11:31:16.111Z,16.05
2019-06-08T11:33:51.386Z,15.35
2019-06-08T11:36:28.189Z,15.88
2019-06-08T11:39:02.917Z,15.58
2019-06-08T11:41:37.943Z,15.30
2019-06-08T11:44:14.918Z,15.85
2019-06-08T11:46:49.873Z,17.57
2019-06-08T11:49:27.729Z,16.65
2019-06-08T11:52:00.716Z,16.25
2019-06-08T11:54:40.022Z,15.48
2019-06-08T11:57:12.792Z,14.80
2019-06-08T11:59:48.464Z,14.73
2019-06-08T12:02:22.900Z,15.18
2019-06-08T12:04:57.256Z,14.60
2019-06-08T12:07:32.336Z,13.80
2019-06-08T12:10:09.664Z,14.47
2019-06-08T12:12:43.148Z,14.75
2019-06-08T12:15:18.149Z,14.58
2019-06-08T12:17:53.056Z,14.68
2019-06-08T12:20:28.007Z,15.08
2019-06-08T12:23:01.960Z,15.38
2019-06-08T12:25:37.755Z,15.88
2019-06-08T12:28:12.586Z,15.58
2019-06-08T12:30:47.918Z,14.47
2019-06-08T12:33:22.969Z,15.83
2019-06-08T12:35:57.895Z,15.20
2019-06-08T12:38:34.635Z,14.83
2019-06-08T12:41:09.629Z,14.40
2019-06-08T12:43:43.497Z,12.75
2019-06-08T12:46:19.820Z,12.47
2019-06-08T12:48:53.150Z,12.35
2019-06-08T12:51:28.085Z,11.60
2019-06-08T12:54:02.311Z,11.43
2019-06-08T12:56:37.785Z,11.18
2019-06-08T12:59:15.283Z,9.73
2019-06-08T13:01:48.423Z,9.68
2019-06-08T13:04:23.803Z,8.73
2019-06-08T13:06:58.460Z,9.30
2019-06-08T13:09:32.797Z,8.60
2019-06-08T13:12:07.931Z,8.45
2019-06-08T13:14:41.891Z,9.10
2019-06-08T13:17:19.264Z,8.15
2019-06-08T13:19:51.850Z,8.35
2019-06-08T13:22:29.021Z,8.03
2019-06-08T13:25:15.687Z,7.67
2019-06-08T13:27:37.970Z,7.33
2019-06-08T13:30:15.439Z,6.55
2019-06-08T13:32:48.234Z,6.53
2019-06-08T13:35:22.533Z,6.37
2019-06-08T13:37:57.618Z,5.70
2019-06-08T13:40:31.861Z,5.97
2019-06-08T13:43:07.962Z,5.03
2019-06-08T13:45:40.958Z,5.10
2019-06-08T13:48:16.025Z,5.00
2019-06-08T13:50:52.271Z,4.90
2019-06-08T13:53:29.356Z,5.10
2019-06-08T13:56:02.000Z,5.03
2019-06-08T13:58:38.211Z,3.98
2019-06-08T14:01:13.400Z,4.17
2019-06-08T14:03:49.993Z,4.37
2019-06-08T14:06:24.979Z,26.52
2019-06-08T14:08:59.324Z,16.20
2019-06-08T14:11:33.052Z,7.85
2019-06-08T14:14:08.518Z,6.10
2019-06-08T14:16:42.741Z,5.53
2019-06-08T14:19:19.360Z,5.22
2019-06-08T14:21:52.330Z,4.28
2019-06-08T14:24:32.149Z,4.20
2019-06-08T14:27:02.106Z,3.90
2019-06-08T14:29:36.061Z,4.22
2019-06-08T14:32:09.765Z,4.10
2019-06-08T14:34:49.752Z,10.85
2019-06-08T14:37:24.864Z,36.83
2019-06-08T14:39:58.619Z,19.07
2019-06-08T14:42:34.003Z,7.55
2019-06-08T14:45:10.807Z,7.37
2019-06-08T14:47:47.587Z,7.00
2019-06-08T14:50:22.929Z,6.78
2019-06-08T14:52:58.806Z,5.92
2019-06-08T14:55:34.371Z,5.72
2019-06-08T14:58:09.129Z,5.05
2019-06-08T15:00:45.260Z,4.67
2019-06-08T15:03:21.146Z,4.40
2019-06-08T15:05:55.168Z,4.67
2019-06-08T15:08:31.121Z,3.95
2019-06-08T15:11:07.921Z,3.90
2019-06-08T15:13:41.721Z,3.83
2019-06-08T15:16:18.028Z,3.95
2019-06-08T15:18:51.294Z,3.72
2019-06-08T15:21:26.506Z,3.62
2019-06-08T15:24:02.121Z,3.77
2019-06-08T15:26:42.337Z,3.75
2019-06-08T15:29:12.031Z,3.77
2019-06-08T15:31:48.216Z,3.80
2019-06-08T15:34:23.251Z,3.20
2019-06-08T15:36:57.573Z,3.52
2019-06-08T15:39:33.986Z,3.30
2019-06-08T15:42:08.258Z,3.20
2019-06-08T15:44:42.523Z,3.17
2019-06-08T15:47:18.041Z,3.30
2019-06-08T15:49:52.722Z,3.50
2019-06-08T15:52:29.539Z,3.45
2019-06-08T15:55:02.350Z,3.08
2019-06-08T15:57:40.359Z,2.85
2019-06-08T16:00:11.670Z,2.87
2019-06-08T16:02:45.626Z,3.02
2019-06-08T16:05:19.692Z,3.22
2019-06-08T16:07:53.850Z,2.92
2019-06-08T16:10:28.130Z,3.15
2019-06-08T16:13:04.214Z,3.05
2019-06-08T16:15:39.648Z,3.37
2019-06-08T16:18:14.078Z,3.10
2019-06-08T16:20:50.743Z,3.17
2019-06-08T16:23:25.351Z,3.37
2019-06-08T16:25:59.313Z,3.33
2019-06-08T16:28:34.167Z,3.70
2019-06-08T16:31:08.004Z,3.47
2019-06-08T16:33:44.189Z,3.22
2019-06-08T16:36:17.725Z,3.47
2019-06-08T16:38:53.008Z,3.00
2019-06-08T16:41:27.764Z,3.40
2019-06-08T16:44:06.098Z,3.50
2019-06-08T16:46:38.605Z,3.55
2019-06-08T16:49:12.706Z,3.05
2019-06-08T16:51:47.184Z,3.87
2019-06-08T16:54:20.977Z,3.90
2019-06-08T16:57:08.968Z,3.40
2019-06-08T16:59:30.539Z,3.35
2019-06-08T17:02:06.288Z,3.45
2019-06-08T17:04:41.650Z,3.42
2019-06-08T17:07:16.172Z,3.55
2019-06-08T17:09:50.909Z,3.10
2019-06-08T17:12:25.394Z,3.33
2019-06-08T17:14:59.606Z,3.10
2019-06-08T17:17:34.684Z,3.20
2019-06-08T17:20:09.834Z,3.22
2019-06-08T17:22:43.741Z,3.00
2019-06-08T17:25:17.552Z,3.27
2019-06-08T17:27:51.418Z,2.80
2019-06-08T17:30:25.282Z,3.20
2019-06-08T17:32:59.323Z,3.10
2019-06-08T17:35:35.595Z,3.12
2019-06-08T17:38:09.560Z,3.10
2019-06-08T17:40:44.366Z,3.30
2019-06-08T17:43:19.279Z,3.33
2019-06-08T17:45:53.018Z,3.00
2019-06-08T17:48:28.009Z,2.90
2019-06-08T17:51:02.024Z,3.05
2019-06-08T17:53:36.955Z,2.95
2019-06-08T17:56:10.903Z,2.90
2019-06-08T17:58:46.148Z,2.95
2019-06-08T18:01:21.423Z,3.40
2019-06-08T18:03:57.359Z,3.00
2019-06-08T18:06:30.972Z,2.75
2019-06-08T18:09:07.870Z,3.20
2019-06-08T18:11:43.481Z,2.92
2019-06-08T18:14:19.351Z,3.27
2019-06-08T18:16:53.302Z,2.85
2019-06-08T18:19:29.845Z,2.98
2019-06-08T18:22:05.703Z,2.87
2019-06-08T18:24:40.889Z,3.00
2019-06-08T18:27:17.827Z,3.25
2019-06-08T18:29:51.682Z,3.15
2019-06-08T18:32:27.213Z,2.83
2019-06-08T18:35:01.062Z,3.33
2019-06-08T18:37:34.893Z,3.10
2019-06-08T18:40:09.072Z,2.80
2019-06-08T18:42:44.619Z,3.27
2019-06-08T18:45:19.434Z,3.35
2019-06-08T18:47:53.608Z,3.70
2019-06-08T18:50:28.475Z,3.20
2019-06-08T18:53:03.780Z,2.90
2019-06-08T18:55:40.541Z,2.90
2019-06-08T18:58:21.270Z,3.15
2019-06-08T19:00:51.380Z,3.00
2019-06-08T19:03:25.100Z,3.10
2019-06-08T19:05:59.024Z,2.77
2019-06-08T19:08:32.952Z,2.80
2019-06-08T19:11:08.118Z,2.95
2019-06-08T19:13:42.571Z,2.70
2019-06-08T19:16:18.176Z,2.75
2019-06-08T19:18:52.923Z,2.67
2019-06-08T19:21:27.803Z,2.90
2019-06-08T19:24:03.879Z,2.80
2019-06-08T19:26:40.978Z,2.90
2019-06-08T19:29:13.222Z,3.60
2019-06-08T19:31:51.182Z,2.70
2019-06-08T19:34:24.004Z,2.80
2019-06-08T19:36:57.942Z,2.90
2019-06-08T19:39:32.175Z,2.80
2019-06-08T19:42:07.988Z,3.00
2019-06-08T19:44:50.556Z,2.60
2019-06-08T19:47:17.727Z,2.50
2019-06-08T19:49:54.742Z,3.12
2019-06-08T19:52:27.568Z,2.95
2019-06-08T19:55:01.491Z,2.98
2019-06-08T19:57:35.149Z,2.70
2019-06-08T20:00:09.022Z,2.55
2019-06-08T20:02:44.544Z,2.60
2019-06-08T20:05:18.853Z,2.52
2019-06-08T20:07:53.729Z,2.83
2019-06-08T20:10:28.120Z,2.72
2019-06-08T20:13:02.355Z,2.80
2019-06-08T20:15:43.458Z,2.92
2019-06-08T20:18:12.423Z,3.02
2019-06-08T20:20:49.059Z,3.33
2019-06-08T20:23:21.480Z,3.70
2019-06-08T20:25:57.360Z,3.33
2019-06-08T20:28:30.714Z,3.33
2019-06-08T20:31:04.599Z,3.42
2019-06-08T20:33:41.318Z,3.55
2019-06-08T20:36:17.397Z,3.92
2019-06-08T20:38:51.015Z,3.60
2019-06-08T20:41:24.666Z,3.52
2019-06-08T20:43:58.518Z,3.50
2019-06-08T20:46:32.258Z,3.70
2019-06-08T20:49:08.194Z,3.75
2019-06-08T20:51:42.484Z,3.77
2019-06-08T20:54:17.218Z,3.90
2019-06-08T20:56:52.097Z,3.70
2019-06-08T20:59:32.957Z,3.50
2019-06-08T21:02:02.484Z,3.35
2019-06-08T21:04:38.410Z,3.30
2019-06-08T21:07:12.385Z,3.30
2019-06-08T21:09:49.611Z,3.45
2019-06-08T21:12:22.095Z,3.60
2019-06-08T21:14:55.879Z,3.60
2019-06-08T21:17:29.969Z,3.60
2019-06-08T21:20:03.684Z,3.58
2019-06-08T21:22:37.630Z,3.70
2019-06-08T21:25:11.782Z,3.83
2019-06-08T21:27:48.058Z,3.60
2019-06-08T21:30:24.485Z,3.83
2019-06-08T21:33:00.726Z,3.22
2019-06-08T21:35:33.920Z,3.77
2019-06-08T21:38:22.557Z,3.77
2019-06-08T21:40:43.315Z,4.10
2019-06-08T21:43:18.413Z,4.30
2019-06-08T21:45:53.506Z,3.90
2019-06-08T21:48:27.910Z,4.05
2019-06-08T21:51:01.942Z,4.17
2019-06-08T21:53:37.996Z,4.03
2019-06-08T21:56:11.868Z,3.77
2019-06-08T21:58:47.323Z,3.80
2019-06-08T22:01:21.427Z,3.87
2019-06-08T22:03:56.556Z,4.03
2019-06-08T22:06:30.567Z,4.00
2019-06-08T22:09:07.068Z,4.00
2019-06-08T22:11:40.909Z,3.70
2019-06-08T22:14:14.884Z,3.75
2019-06-08T22:16:48.666Z,3.77
2019-06-08T22:19:22.798Z,3.75
2019-06-08T22:21:59.813Z,3.87
2019-06-08T22:24:32.233Z,3.70
2019-06-08T22:27:07.190Z,4.08
2019-06-08T22:29:41.202Z,3.40
2019-06-08T22:32:14.972Z,3.90
2019-06-08T22:34:48.841Z,3.70
2019-06-08T22:37:23.340Z,3.87
2019-06-08T22:39:58.222Z,3.72
2019-06-08T22:42:33.233Z,3.87
2019-06-08T22:45:08.276Z,3.90
2019-06-08T22:47:42.362Z,3.90
2019-06-08T22:50:18.412Z,3.80
2019-06-08T22:52:53.516Z,4.20
2019-06-08T22:55:27.736Z,3.80
2019-06-08T22:58:03.049Z,4.00
2019-06-08T23:00:51.817Z,3.92
2019-06-08T23:03:12.776Z,3.80
2019-06-08T23:05:47.687Z,3.75
2019-06-08T23:08:22.004Z,3.90
2019-06-08T23:10:58.599Z,4.10
2019-06-08T23:13:31.373Z,4.20
2019-06-08T23:16:06.191Z,4.00
2019-06-08T23:18:40.589Z,4.47
2019-06-08T23:21:14.309Z,3.70
2019-06-08T23:23:48.075Z,4.05
2019-06-08T23:26:21.891Z,3.75
2019-06-08T23:28:56.090Z,4.33
2019-06-08T23:31:31.457Z,4.15
2019-06-08T23:34:09.231Z,4.17
2019-06-08T23:36:53.261Z,4.22
2019-06-08T23:39:18.009Z,4.30
2019-06-08T23:41:51.540Z,4.40
2019-06-08T23:44:25.521Z,4.58
2019-06-08T23:47:01.154Z,4.37
2019-06-08T23:49:34.747Z,4.45
2019-06-08T23:52:11.273Z,4.37
2019-06-08T23:54:43.965Z,4.70
2019-06-08T23:57:18.067Z,4.08
2019-06-08T23:59:51.918Z,4.10
